Aviation Digital Data Service (ADDS)

Output produced by METARs form (1827 UTC 16 August 2018)
found at http://www.aviationweather.gov/adds/metars/
 
EGAA 161820Z 25013KT 9999 FEW026 SCT035 15/11 Q1011
TAF EGAA 161653Z 1618/1718 28010KT 9999 FEW020 
     BECMG 1621/1623 22012KT 
     PROB30 
     TEMPO 1623/1703 BKN014 
     BECMG 1705/1708 BKN012 
     TEMPO 1705/1718 8000 RA 
     PROB40 
     TEMPO 1709/1716 4000 RADZ BKN009 
     TEMPO 1712/1718 22018G28KT 
     BECMG 1716/1718 BKN016
       
EGYE 161350Z 25011KT 9999 SCT033 SCT250 ///// Q1011 BLU
EGPL 161820Z AUTO 27019KT 9999 SCT019/// BKN045/// 14/11 Q1005
EGUB 161750Z 27010KT 9999 FEW048 20/08 Q1014 BLU NOSIG
TAF EGUB 161618Z 1618/1701 26008KT 9999 FEW045
       
EGKB 161820Z 20011KT CAVOK 16/13 Q1015
TAF EGKB 161659Z 1618/1622 23008KT 9999 FEW025
       
EGBB 161820Z 27010KT CAVOK 18/07 Q1014
TAF EGBB 161656Z 1618/1718 26009KT 9999 SCT045
       
EGNH 161820Z 24019KT 9999 FEW030 17/12 Q1012
TAF EGNH 161656Z 1618/1620 25017KT 9999 FEW020 
     PROB30 
     TEMPO 1618/1620 25020G30KT 8000 -SHRA
       
EGDM 161750Z AUTO 29013KT 9999 FEW050/// 18/08 Q1015
EGHH 161820Z 25007KT 9999 FEW037 19/13 Q1015
TAF EGHH 161655Z 1618/1703 22010KT 9999 SCT025 
     PROB30 
     TEMPO 1618/1620 9000 -SHRA 
     BECMG 1619/1621 29005KT
       
EGGD 161820Z AUTO 26012KT 9999 NCD 16/11 Q1015
TAF EGGD 161656Z 1618/1718 26010KT 9999 SCT040 
     PROB40 
     TEMPO 1618/1621 27015G25KT
       
EGVN 161750Z 26008KT CAVOK 18/09 Q1014 BLU NOSIG
TAF EGVN 161618Z 1618/1718 26010KT 9999 FEW045
       
EGAA 161820Z 25013KT 9999 FEW026 SCT035 15/11 Q1011
TAF EGAA 161653Z 1618/1718 28010KT 9999 FEW020 
     BECMG 1621/1623 22012KT 
     PROB30 
     TEMPO 1623/1703 BKN014 
     BECMG 1705/1708 BKN012 
     TEMPO 1705/1718 8000 RA 
     PROB40 
     TEMPO 1709/1716 4000 RADZ BKN009 
     TEMPO 1712/1718 22018G28KT 
     BECMG 1716/1718 BKN016
       
EGAC 161820Z AUTO 26011KT 9999 NCD 16/10 Q1011
TAF EGAC 161655Z 1618/1621 27010KT 9999 SCT020 
     PROB30 
     TEMPO 1618/1620 7000 SHRA
       
EGAE 161750Z 25012KT 9999 FEW018 SCT030 15/12 Q1010
TAF EGAE 161358Z 1615/1620 27015KT 9999 FEW015 SCT035 
     TEMPO 1615/1618 7000 SHRA
       
EGBB 161820Z 27010KT CAVOK 18/07 Q1014
TAF EGBB 161656Z 1618/1718 26009KT 9999 SCT045
       
EGBJ 161820Z 28003KT 9999 FEW042 19/11 Q1014
TAF EGBJ 161358Z 1615/1619 26009KT 9999 SCT030 
     PROB30 
     TEMPO 1615/1618 9000 -SHRA
       
EGCC 161820Z AUTO 25010KT 9999 NCD 17/10 Q1013 NOSIG
TAF EGCC 161657Z 1618/1724 26009KT 9999 SCT040 
     PROB30 
     TEMPO 1618/1620 8000 -SHRA 
     PROB30 
     TEMPO 1717/1724 8000 -RA BKN014
       
EGCK 161820Z AUTO 23013KT 9999 NCD 17/13 Q1013
TAF EGCK 161656Z 1618/1703 25014KT 9999 FEW015 SCT035 
     PROB30 
     TEMPO 1618/1621 26017G27KT 7000 SHRA
       
EGCN 161820Z 26010KT CAVOK 18/08 Q1013
TAF EGCN 161657Z 1618/1718 27012KT 9999 SCT040
       
EGDM 161750Z AUTO 29013KT 9999 FEW050/// 18/08 Q1015
EGDR 161750Z AUTO 29016KT 9999 // FEW026/// 17/11 Q1017
EGDX 161750Z AUTO 27012KT 9999 SCT026/// 17/11 Q1015
TAF EGDX 161343Z 1615/1624 27015KT 9999 SCT035
       
EGDY 161750Z 32011KT 9999 FEW035 19/09 Q1015 BLU NOSIG
TAF EGDY 161334Z 1615/1624 30010KT 9999 SCT030
       
EGEC 161620Z 28015KT 9999 FEW017 14/12 Q1008
EGEO 161550Z 24011KT 9999 FEW022 SCT042 15/11 Q1006
EGFF 161820Z AUTO 28013KT 9999 FEW026 17/11 Q1015
TAF EGFF 161656Z 1618/1718 28014KT 9999 SCT025 
     BECMG 1619/1621 27004KT 
     BECMG 1709/1711 27014KT
       
EGGD 161820Z AUTO 26012KT 9999 NCD 16/11 Q1015
TAF EGGD 161656Z 1618/1718 26010KT 9999 SCT040 
     PROB40 
     TEMPO 1618/1621 27015G25KT
       
EGGP 161820Z 23010KT 9999 SCT032 SCT037 17/11 Q1013
TAF EGGP 161657Z 1618/1718 26012KT 9999 SCT025 
     PROB30 
     TEMPO 1618/1620 8000 -SHRA 
     PROB30 
     TEMPO 1716/1718 8000 -RA
       
EGGW 161820Z AUTO 24009KT 9999 NCD 18/09 Q1014
TAF EGGW 161656Z 1618/1718 24009KT 9999 SCT045 
     PROB30 1701/1707 5000 BR
       
EGHC 161720Z 30011KT 9999 FEW020 15/12 Q1017
EGHE 161650Z 1650Z 29015KT 9999 FEW028 18/12 Q1018
EGHH 161820Z 25007KT 9999 FEW037 19/13 Q1015
TAF EGHH 161655Z 1618/1703 22010KT 9999 SCT025 
     PROB30 
     TEMPO 1618/1620 9000 -SHRA 
     BECMG 1619/1621 29005KT
       
EGHI 161820Z 23007KT 9999 VCSH SCT038 17/13 Q1015
TAF EGHI 161655Z 1618/1622 22010KT 9999 SCT025 
     PROB30 
     TEMPO 1618/1620 9000 -SHRA 
     BECMG 1619/1621 29005KT
       
EGHQ 161820Z 29014KT 9999 FEW020 16/11 Q1017
TAF EGHQ 161655Z 1618/1621 29015KT 9999 FEW025
       
EGJA 161720Z 29007KT 9999 FEW008 17/15 Q1017
TAF EGJA 161402Z 1615/1619 29012KT 9999 SCT030
       
EGJB 161820Z 29008KT 9999 FEW018 17/13 Q1017
TAF EGJB 161655Z 1618/1703 30012KT 9999 SCT012
       
EGJJ 161820Z 29012KT 9999 FEW015 17/14 Q1017
TAF EGJJ 161655Z 1618/1703 30012KT 9999 SCT012
       
EGKA 161720Z 24008KT 9999 FEW035 17/14 Q1015
TAF EGKA 161400Z 1615/1619 25012KT 9999 SCT025
       
EGKB 161820Z 20011KT CAVOK 16/13 Q1015
TAF EGKB 161659Z 1618/1622 23008KT 9999 FEW025
       
EGKK 161820Z 22008KT 9999 FEW022 17/14 Q1015
TAF EGKK 161657Z 1618/1724 25006KT 9999 FEW035 
     PROB30 1702/1707 5000 BR MIFG
       
EGLC 161820Z AUTO 22009KT 180V280 9999 FEW027 19/14 Q1014
TAF EGLC 161659Z 1618/1621 24008KT 9999 FEW025
       
EGLF 161820Z 21006KT 9999 FEW040 18/14 Q1015
TAF EGLF 161659Z 1618/1621 27008KT 9999 FEW025
       
EGLL 161820Z AUTO 26010KT 9999 NCD 20/09 Q1014
TAF EGLL 161654Z 1618/1724 26008KT CAVOK 
     PROB30 1703/1707 8000 
     TEMPO 1711/1724 BKN045
       
EGMC 161820Z 21008KT CAVOK 17/13 Q1014
TAF EGMC 161659Z 1618/1703 25006KT 9999 FEW025
       
EGMD 161820Z AUTO VRB01KT 9999 FEW049/// 15/14 Q1015
TAF EGMD 161659Z 1618/1703 29008KT 9999 FEW025
       
EGNC 161650Z 24016KT 200V270 9999 VCSH FEW010 SCT022 16/10 Q1009
EGNH 161820Z 24019KT 9999 FEW030 17/12 Q1012
TAF EGNH 161656Z 1618/1620 25017KT 9999 FEW020 
     PROB30 
     TEMPO 1618/1620 25020G30KT 8000 -SHRA
       
EGNJ 161820Z 25009KT 220V290 9999 FEW018 SCT046 19/09 Q1012
TAF EGNJ 161656Z 1618/1703 25012KT 9999 SCT045
       
EGNM 161820Z 26013KT 9999 -SHRA FEW028 SCT040 15/10 Q1012
TAF EGNM 161656Z 1618/1718 24010KT 9999 SCT030 
     PROB30 
     TEMPO 1701/1710 BKN010 
     BECMG 1715/1718 BKN012 
     PROB40 
     TEMPO 1715/1718 25015G25KT
       
EGNO 161750Z 26018KT 9999 FEW023 17/11 Q1011
TAF EGNO 161100Z 1612/1620 25012KT 9999 FEW020 
     TEMPO 1612/1620 25016G26KT 
     PROB30 
     TEMPO 1612/1617 7000 SHRA
       
EGNR 161820Z 24011KT 9999 SCT032 18/10 Q1013
TAF EGNR 161656Z 1618/1620 28014KT 9999 SCT035 
     PROB40 
     TEMPO 1618/1620 7000 SHRA
       
EGNS 161820Z 26009KT 220V290 CAVOK 16/11 Q1011 NOSIG
TAF EGNS 161700Z 1618/1621 25015KT 9999 FEW020
       
EGNT 161820Z 25011KT 9999 FEW030 15/10 Q1009
TAF EGNT 161657Z 1618/1718 25007KT 9999 SCT040 
     PROB40 
     TEMPO 1618/1620 7000 SHRA 
     BECMG 1715/1718 23017KT BKN012 
     TEMPO 1716/1718 23020G30KT 8000 -RA BKN009
       
EGNV 161820Z 23017KT 9999 FEW030 16/09 Q1010
TAF EGNV 161656Z 1618/1621 26017KT 9999 SCT035 
     TEMPO 1618/1620 25020G30KT 
     PROB30 
     TEMPO 1618/1620 7000 SHRA
       
EGNX 161820Z 26014KT 9999 FEW045 17/08 Q1013
TAF EGNX 161656Z 1618/1718 27016KT 9999 SCT045 
     BECMG 1619/1621 27004KT 
     BECMG 1709/1711 27014KT
       
EGOM 161750Z AUTO 25014KT 9999 -RA FEW019/// BKN050/// 13/11 Q1009
EGOP 161750Z AUTO 26017KT 9999 // FEW026/// 18/12 Q1015
EGOS 161750Z AUTO 24016KT 9999 NCD 17/09 Q1013
EGOV 161750Z 23013KT 9999 FEW022TCU BKN080 17/12 Q1013 BLU
EGOW 161550Z 25019KT 9999 SCT025 19/11 Q1011 BLU
EGPA 161820Z 25014KT 9999 FEW020 15/10 Q1002
TAF EGPA 161658Z 1618/1703 24014KT 9999 SCT025 
     PROB40 
     TEMPO 1618/1703 7000 SHRA
       
EGPB 161820Z 23013KT 9999 FEW012 13/11 Q1001 NOSIG
TAF EGPB 161658Z 1618/1703 22012KT 9999 FEW010
       
EGPC 161820Z 27012KT 9999 FEW011 SCT040 15/08 Q1003
TAF EGPC 161658Z 1618/1703 25012KT 9999 SCT040 
     PROB30 
     TEMPO 1618/1703 7000 SHRA
       
EGPD 161820Z AUTO 24008KT 9999 NCD 17/09 Q1004 NOSIG
TAF EGPD 161659Z 1618/1718 24008KT 9999 SCT040 
     PROB40 
     TEMPO 1712/1717 21015G25KT BKN014 
     TEMPO 1717/1718 6000 RA BKN014
       
EGPE 161820Z 25014KT 9999 FEW015 BKN046 15/09 Q1004
TAF EGPE 161658Z 1618/1703 24012KT 9999 FEW020 
     PROB40 
     TEMPO 1618/1703 7000 SHRA
       
EGPF 161820Z AUTO 24012KT 9999 FEW044/// //////CB 15/12 Q1008
TAF EGPF 161659Z 1618/1718 24012KT 9999 SCT030 
     PROB30 
     TEMPO 1702/1707 BKN014 
     TEMPO 1707/1718 7000 RA BKN012 
     PROB40 
     TEMPO 1708/1718 BKN008 
     TEMPO 1711/1718 22016G26KT
       
EGPH 161820Z 23012KT 9999 SCT027 15/11 Q1007
TAF EGPH 161659Z 1618/1718 24012KT 9999 SCT030 
     PROB40 
     TEMPO 1709/1718 BKN014 
     TEMPO 1712/1718 22015G25KT
       
EGPI 161750Z 28014KT 9999 FEW018 SCT025 14/11 Q1009
EGPK 161820Z 25011KT 9999 SCT030 16/11 Q1009
TAF EGPK 161659Z 1618/1718 24012KT 9999 SCT030 
     PROB30 
     TEMPO 1701/1707 BKN014 
     TEMPO 1707/1718 7000 RA BKN012 
     PROB40 
     TEMPO 1709/1718 BKN008 
     TEMPO 1710/1718 22016G26KT
       
EGPL 161820Z AUTO 27019KT 9999 SCT019/// BKN045/// 14/11 Q1005
EGPM 161820Z AUTO 23018KT 9999 BKN014/// BKN037/// 14/10 Q0999
TAF EGPM 161658Z 1618/1620 22015KT 9999 SCT030
       
EGPN 161820Z 26015KT 9999 FEW025 17/12 Q1006
TAF EGPN 161658Z 1618/1620 24015KT 9999 FEW025
       
EGPO 161820Z 27011KT 9999 VCSH FEW020CB SCT028 14/10 Q1003
TAF EGPO 161658Z 1618/1703 25015KT 9999 SCT035 
     PROB40 
     TEMPO 1618/1703 7000 SHRA
       
EGPU 161750Z AUTO 25015KT 220V280 9999 FEW018/// 14/11 Q1007
EGQK 161750Z AUTO 25017KT 9999 FEW060/// 17/08 Q1003
EGQL 161750Z 27017KT CAVOK 17/09 Q1005 BLU
TAF EGQL 161636Z 1618/1703 25014KT 9999 FEW030 
     PROB30 
     TEMPO 1702/1703 SCT014
       
EGQM 161750Z AUTO 23013KT 9999 BKN070/// BKN140/// 15/11 Q1008 RERA
EGQS 161750Z 26014KT 9999 FEW040 16/08 Q1003 BLU NOSIG
TAF EGQS 161656Z 1618/1712 26014KT 9999 SCT045 
     PROB30 
     TEMPO 1618/1703 27018G28KT 7000 SHRA SCT024CB
       
EGSC 161650Z 25010KT 9999 FEW030 20/09 Q1013
TAF EGSC 161358Z 1615/1619 21007KT 9999 SCT030
       
EGSH 161820Z 20005KT 9999 FEW025 18/13 Q1013 NOSIG
TAF EGSH 161655Z 1618/1624 23010KT 9999 FEW025
       
EGSS 161820Z AUTO 22009KT 9999 NCD 18/13 Q1014
TAF EGSS 161656Z 1618/1724 26008KT 9999 SCT045 
     PROB30 1701/1707 5000 BR MIFG
       
EGTC 161620Z 24010KT 200V280 9999 SCT048 20/10 Q1012
TAF EGTC 161102Z 1612/1621 23012KT 9999 SCT045 
     TEMPO 1612/1614 4000 RA BKN008
       
EGTE 161820Z 29012KT 250V320 9999 FEW040 17/10 Q1016
TAF EGTE 161655Z 1618/1703 29010KT 9999 FEW030
       
EGTK 161820Z 26010KT CAVOK 18/11 Q1014
TAF EGTK 161655Z 1618/1622 26012KT 9999 SCT030
       
EGUB 161750Z 27010KT 9999 FEW048 20/08 Q1014 BLU NOSIG
TAF EGUB 161618Z 1618/1701 26008KT 9999 FEW045
       
EGUL 161756Z AUTO 23008KT 9999 CLR 20/11 A2989 RMK AO2 SLP125 60003 T01980105 10200 20160 53001 $
TAF AMD EGUL 161517Z 1615/1718 25010G15KT 9999 SCT025 QNH2983INS 
     BECMG 1617/1618 21012KT 9999 BKN020 QNH2990INS 
     BECMG 1700/1701 VRB06KT 6000 BR SCT040 QNH2997INS 
     TEMPO 1700/1706 3200 BR 
     BECMG 1706/1707 23012KT 9999 NSW SCT035 QNH3002INS 
     BECMG 1710/1711 23010G15KT 9999 BKN035 QNH3005INS TX19/1615Z TN10/1703Z
       
EGUN 161756Z AUTO 24006KT 9999 CLR 20/13 A2990 RMK AO2 SLP128 60002 T01970132 10199 20158 50001 .
TAF EGUN 161214Z 1612/1718 21010G15KT 8000 -SHRA BKN020 QNH2983INS 
     TEMPO 1612/1615 21012G20KT 4000 -SHRA BR BKN010 
     BECMG 1617/1618 21012KT 9999 NSW BKN020 QNH2990INS 
     BECMG 1700/1701 VRB06KT 6000 BR SCT040 QNH2997INS 
     TEMPO 1700/1706 3200 BR 
     BECMG 1706/1707 23012KT 9999 NSW SCT035 QNH3002INS 
     BECMG 1710/1711 23010G15KT 9999 BKN035 QNH3005INS TX19/1615Z TN10/1703Z
       
EGUW 161750Z 20007KT 9999 FEW020 BKN150 15/13 Q1013 BLU
TAF EGUW 161332Z 1615/1624 26010KT CAVOK
       
EGVA 161756Z AUTO 26012KT 9999 BKN070 18/10 A2995 RMK AO2 SLP144 T01790098 10210 20179 53010 $
EGVN 161750Z 26008KT CAVOK 18/09 Q1014 BLU NOSIG
TAF EGVN 161618Z 1618/1718 26010KT 9999 FEW045
       
EGVO 161750Z 22008KT 9999 FEW020 SCT060 18/13 Q1014 BLU NOSIG
TAF EGVO 161632Z 1618/1706 26008KT 9999 FEW040
       
EGVP 161750Z 28010KT 9999 FEW040 19/09 Q1015 BLU
TAF EGVP 161319Z 1615/1619 27010KT 9999 FEW025
       
EGWC 161450Z 28009KT 9999 SCT040 19/08 Q1012 BLU
EGWU 161750Z 27013KT CAVOK 19/09 Q1014 NOSIG
TAF EGWU 161641Z 1618/1712 27010KT 9999 SCT030 
     PROB30 1703/1708 7000 HZ
       
EGXC 161750Z 26012KT 9999 FEW045 SCT080 20/06 Q1012 BLU
TAF EGXC 161615Z 1618/1712 25010KT 9999 FEW040 
     PROB30 
     TEMPO 1703/1706 7000 BR
       
EGXE 161750Z AUTO 24012KT 9999 SCT032/// BKN060/// 17/09 Q1011
EGXP 161750Z AUTO 27011KT 9999 // FEW046/// BKN080/// 18/09 Q1011
EGXS 161750Z AUTO 24009KT 9999 // OVC080/// 19/09 Q1011
EGXT 161750Z AUTO 26013KT 9999 BKN070/// 19/09 Q1012
EGXU 161750Z AUTO 27011KT 9999 // BKN060/// 16/09 Q1011
TAF EGXU 161058Z 1612/1621 26012KT 9999 SCT030 
     TEMPO 1613/1616 26015G25KT 7000 SHRA 
     TEMPO 1616/1618 26015G25KT 6000 SHRA BKN024CB
       
EGXV 161750Z AUTO 27006KT 9999 SCT070/// 18/10 Q1011
EGXW 161750Z 25009KT CAVOK 18/08 Q1012 BLU
TAF EGXW 161612Z 1618/1712 26010KT 9999 FEW045 
     PROB40 
     TEMPO 1708/1710 SCT020
       
EGXZ 161750Z AUTO 24014KT 9999 BKN050/// 16/10 Q1011
TAF EGXZ 161058Z 1612/1621 26012KT 9999 SCT030 
     TEMPO 1613/1616 26015G25KT 7000 SHRA 
     TEMPO 1616/1618 26015G25KT 6000 SHRA BKN024CB
       
EGYD 161750Z AUTO 26010KT 9999 // BKN070/// 18/10 Q1012
EGYE 161350Z 25011KT 9999 SCT033 SCT250 ///// Q1011 BLU
EGYH 161750Z 28007KT 9999 FEW045 18/10 Q1012 BLU
EGYM 161750Z 26011KT 9999 FEW025 SCT250 19/08 Q1012 BLU
TAF EGYM 161658Z 1618/1621 22008KT 9999 SCT035
       
EGYP 161750Z 30018KT 9999 FEW025 SCT110 BKN150 12/04 Q0990 BLU NOSIG
TAF EGYP 161619Z 1618/1712 34018G28KT 9999 FEW012 
     BECMG 1618/1620 28017G28KT 
     BECMG 1621/1623 25012KT 
     PROB40 
     TEMPO 1621/1704 SCT012 
     PROB40 
     TEMPO 1706/1710 2000 BR SCT004 
     PROB30 
     TEMPO 1706/1710 0500 FG VV/// 
     BECMG 1710/1712 01017G27KT 520003
       
EGCK 161820Z AUTO 23013KT 9999 NCD 17/13 Q1013
TAF EGCK 161656Z 1618/1703 25014KT 9999 FEW015 SCT035 
     PROB30 
     TEMPO 1618/1621 26017G27KT 7000 SHRA
       
EGSC 161650Z 25010KT 9999 FEW030 20/09 Q1013
TAF EGSC 161358Z 1615/1619 21007KT 9999 SCT030
       
EGEC 161620Z 28015KT 9999 FEW017 14/12 Q1008
EGFF 161820Z AUTO 28013KT 9999 FEW026 17/11 Q1015
TAF EGFF 161656Z 1618/1718 28014KT 9999 SCT025 
     BECMG 1619/1621 27004KT 
     BECMG 1709/1711 27014KT
       
EGNC 161650Z 24016KT 200V270 9999 VCSH FEW010 SCT022 16/10 Q1009
EGLC 161820Z AUTO 22009KT 180V280 9999 FEW027 19/14 Q1014
TAF EGLC 161659Z 1618/1621 24008KT 9999 FEW025
       
EGAC 161820Z AUTO 26011KT 9999 NCD 16/10 Q1011
TAF EGAC 161655Z 1618/1621 27010KT 9999 SCT020 
     PROB30 
     TEMPO 1618/1620 7000 SHRA
       
EGXC 161750Z 26012KT 9999 FEW045 SCT080 20/06 Q1012 BLU
TAF EGXC 161615Z 1618/1712 25010KT 9999 FEW040 
     PROB30 
     TEMPO 1703/1706 7000 BR
       
EGWC 161450Z 28009KT 9999 SCT040 19/08 Q1012 BLU
EGTC 161620Z 24010KT 200V280 9999 SCT048 20/10 Q1012
TAF EGTC 161102Z 1612/1621 23012KT 9999 SCT045 
     TEMPO 1612/1614 4000 RA BKN008
       
EGYD 161750Z AUTO 26010KT 9999 // BKN070/// 18/10 Q1012
EGDR 161750Z AUTO 29016KT 9999 // FEW026/// 17/11 Q1017
EGPN 161820Z 26015KT 9999 FEW025 17/12 Q1006
TAF EGPN 161658Z 1618/1620 24015KT 9999 FEW025
       
EGPD 161820Z AUTO 24008KT 9999 NCD 17/09 Q1004 NOSIG
TAF EGPD 161659Z 1618/1718 24008KT 9999 SCT040 
     PROB40 
     TEMPO 1712/1717 21015G25KT BKN014 
     TEMPO 1717/1718 6000 RA BKN014
       
EGNX 161820Z 26014KT 9999 FEW045 17/08 Q1013
TAF EGNX 161656Z 1618/1718 27016KT 9999 SCT045 
     BECMG 1619/1621 27004KT 
     BECMG 1709/1711 27014KT
       
EGPH 161820Z 23012KT 9999 SCT027 15/11 Q1007
TAF EGPH 161659Z 1618/1718 24012KT 9999 SCT030 
     PROB40 
     TEMPO 1709/1718 BKN014 
     TEMPO 1712/1718 22015G25KT
       
EGTE 161820Z 29012KT 250V320 9999 FEW040 17/10 Q1016
TAF EGTE 161655Z 1618/1703 29010KT 9999 FEW030
       
EGVA 161756Z AUTO 26012KT 9999 BKN070 18/10 A2995 RMK AO2 SLP144 T01790098 10210 20179 53010 $
EGLF 161820Z 21006KT 9999 FEW040 18/14 Q1015
TAF EGLF 161659Z 1618/1621 27008KT 9999 FEW025
       
EGKK 161820Z 22008KT 9999 FEW022 17/14 Q1015
TAF EGKK 161657Z 1618/1724 25006KT 9999 FEW035 
     PROB30 1702/1707 5000 BR MIFG
       
EGPF 161820Z AUTO 24012KT 9999 FEW044/// //////CB 15/12 Q1008
TAF EGPF 161659Z 1618/1718 24012KT 9999 SCT030 
     PROB30 
     TEMPO 1702/1707 BKN014 
     TEMPO 1707/1718 7000 RA BKN012 
     PROB40 
     TEMPO 1708/1718 BKN008 
     TEMPO 1711/1718 22016G26KT
       
EGBJ 161820Z 28003KT 9999 FEW042 19/11 Q1014
TAF EGBJ 161358Z 1615/1619 26009KT 9999 SCT030 
     PROB30 
     TEMPO 1615/1618 9000 -SHRA
       
EGNR 161820Z 24011KT 9999 SCT032 18/10 Q1013
TAF EGNR 161656Z 1618/1620 28014KT 9999 SCT035 
     PROB40 
     TEMPO 1618/1620 7000 SHRA
       
EGLL 161820Z AUTO 26010KT 9999 NCD 20/09 Q1014
TAF EGLL 161654Z 1618/1724 26008KT CAVOK 
     PROB30 1703/1707 8000 
     TEMPO 1711/1724 BKN045
       
EGNJ 161820Z 25009KT 220V290 9999 FEW018 SCT046 19/09 Q1012
TAF EGNJ 161656Z 1618/1703 25012KT 9999 SCT045
       
EGPE 161820Z 25014KT 9999 FEW015 BKN046 15/09 Q1004
TAF EGPE 161658Z 1618/1703 24012KT 9999 FEW020 
     PROB40 
     TEMPO 1618/1703 7000 SHRA
       
EGPI 161750Z 28014KT 9999 FEW018 SCT025 14/11 Q1009
EGTK 161820Z 26010KT CAVOK 18/11 Q1014
TAF EGTK 161655Z 1618/1622 26012KT 9999 SCT030
       
EGQK 161750Z AUTO 25017KT 9999 FEW060/// 17/08 Q1003
EGPA 161820Z 25014KT 9999 FEW020 15/10 Q1002
TAF EGPA 161658Z 1618/1703 24014KT 9999 SCT025 
     PROB40 
     TEMPO 1618/1703 7000 SHRA
       
EGUL 161756Z AUTO 23008KT 9999 CLR 20/11 A2989 RMK AO2 SLP125 60003 T01980105 10200 20160 53001 $
TAF AMD EGUL 161517Z 1615/1718 25010G15KT 9999 SCT025 QNH2983INS 
     BECMG 1617/1618 21012KT 9999 BKN020 QNH2990INS 
     BECMG 1700/1701 VRB06KT 6000 BR SCT040 QNH2997INS 
     TEMPO 1700/1706 3200 BR 
     BECMG 1706/1707 23012KT 9999 NSW SCT035 QNH3002INS 
     BECMG 1710/1711 23010G15KT 9999 BKN035 QNH3005INS TX19/1615Z TN10/1703Z
       
EGNM 161820Z 26013KT 9999 -SHRA FEW028 SCT040 15/10 Q1012
TAF EGNM 161656Z 1618/1718 24010KT 9999 SCT030 
     PROB30 
     TEMPO 1701/1710 BKN010 
     BECMG 1715/1718 BKN012 
     PROB40 
     TEMPO 1715/1718 25015G25KT
       
EGXE 161750Z AUTO 24012KT 9999 SCT032/// BKN060/// 17/09 Q1011
EGQL 161750Z 27017KT CAVOK 17/09 Q1005 BLU
TAF EGQL 161636Z 1618/1703 25014KT 9999 FEW030 
     PROB30 
     TEMPO 1702/1703 SCT014
       
EGXU 161750Z AUTO 27011KT 9999 // BKN060/// 16/09 Q1011
TAF EGXU 161058Z 1612/1621 26012KT 9999 SCT030 
     TEMPO 1613/1616 26015G25KT 7000 SHRA 
     TEMPO 1616/1618 26015G25KT 6000 SHRA BKN024CB
       
EGGP 161820Z 23010KT 9999 SCT032 SCT037 17/11 Q1013
TAF EGGP 161657Z 1618/1718 26012KT 9999 SCT025 
     PROB30 
     TEMPO 1618/1620 8000 -SHRA 
     PROB30 
     TEMPO 1716/1718 8000 -RA
       
EGAE 161750Z 25012KT 9999 FEW018 SCT030 15/12 Q1010
TAF EGAE 161358Z 1615/1620 27015KT 9999 FEW015 SCT035 
     TEMPO 1615/1618 7000 SHRA
       
EGQS 161750Z 26014KT 9999 FEW040 16/08 Q1003 BLU NOSIG
TAF EGQS 161656Z 1618/1712 26014KT 9999 SCT045 
     PROB30 
     TEMPO 1618/1703 27018G28KT 7000 SHRA SCT024CB
       
EGGW 161820Z AUTO 24009KT 9999 NCD 18/09 Q1014
TAF EGGW 161656Z 1618/1718 24009KT 9999 SCT045 
     PROB30 1701/1707 5000 BR
       
EGMD 161820Z AUTO VRB01KT 9999 FEW049/// 15/14 Q1015
TAF EGMD 161659Z 1618/1703 29008KT 9999 FEW025
       
EGCC 161820Z AUTO 25010KT 9999 NCD 17/10 Q1013 NOSIG
TAF EGCC 161657Z 1618/1724 26009KT 9999 SCT040 
     PROB30 
     TEMPO 1618/1620 8000 -SHRA 
     PROB30 
     TEMPO 1717/1724 8000 -RA BKN014
       
EGYM 161750Z 26011KT 9999 FEW025 SCT250 19/08 Q1012 BLU
TAF EGYM 161658Z 1618/1621 22008KT 9999 SCT035
       
EGUN 161756Z AUTO 24006KT 9999 CLR 20/13 A2990 RMK AO2 SLP128 60002 T01970132 10199 20158 50001 .
TAF EGUN 161214Z 1612/1718 21010G15KT 8000 -SHRA BKN020 QNH2983INS 
     TEMPO 1612/1615 21012G20KT 4000 -SHRA BR BKN010 
     BECMG 1617/1618 21012KT 9999 NSW BKN020 QNH2990INS 
     BECMG 1700/1701 VRB06KT 6000 BR SCT040 QNH2997INS 
     TEMPO 1700/1706 3200 BR 
     BECMG 1706/1707 23012KT 9999 NSW SCT035 QNH3002INS 
     BECMG 1710/1711 23010G15KT 9999 BKN035 QNH3005INS TX19/1615Z TN10/1703Z
       
EGNT 161820Z 25011KT 9999 FEW030 15/10 Q1009
TAF EGNT 161657Z 1618/1718 25007KT 9999 SCT040 
     PROB40 
     TEMPO 1618/1620 7000 SHRA 
     BECMG 1715/1718 23017KT BKN012 
     TEMPO 1716/1718 23020G30KT 8000 -RA BKN009
       
EGWU 161750Z 27013KT CAVOK 19/09 Q1014 NOSIG
TAF EGWU 161641Z 1618/1712 27010KT 9999 SCT030 
     PROB30 1703/1708 7000 HZ
       
EGSH 161820Z 20005KT 9999 FEW025 18/13 Q1013 NOSIG
TAF EGSH 161655Z 1618/1624 23010KT 9999 FEW025
       
EGEO 161550Z 24011KT 9999 FEW022 SCT042 15/11 Q1006
EGVO 161750Z 22008KT 9999 FEW020 SCT060 18/13 Q1014 BLU NOSIG
TAF EGVO 161632Z 1618/1706 26008KT 9999 FEW040
       
EGPK 161820Z 25011KT 9999 SCT030 16/11 Q1009
TAF EGPK 161659Z 1618/1718 24012KT 9999 SCT030 
     PROB30 
     TEMPO 1701/1707 BKN014 
     TEMPO 1707/1718 7000 RA BKN012 
     PROB40 
     TEMPO 1709/1718 BKN008 
     TEMPO 1710/1718 22016G26KT
       
EGXP 161750Z AUTO 27011KT 9999 // FEW046/// BKN080/// 18/09 Q1011
EGPM 161820Z AUTO 23018KT 9999 BKN014/// BKN037/// 14/10 Q0999
TAF EGPM 161658Z 1618/1620 22015KT 9999 SCT030
       
EGOS 161750Z AUTO 24016KT 9999 NCD 17/09 Q1013
EGKA 161720Z 24008KT 9999 FEW035 17/14 Q1015
TAF EGKA 161400Z 1615/1619 25012KT 9999 SCT025
       
EGHI 161820Z 23007KT 9999 VCSH SCT038 17/13 Q1015
TAF EGHI 161655Z 1618/1622 22010KT 9999 SCT025 
     PROB30 
     TEMPO 1618/1620 9000 -SHRA 
     BECMG 1619/1621 29005KT
       
EGMC 161820Z 21008KT CAVOK 17/13 Q1014
TAF EGMC 161659Z 1618/1703 25006KT 9999 FEW025
       
EGDX 161750Z AUTO 27012KT 9999 SCT026/// 17/11 Q1015
TAF EGDX 161343Z 1615/1624 27015KT 9999 SCT035
       
EGSS 161820Z AUTO 22009KT 9999 NCD 18/13 Q1014
TAF EGSS 161656Z 1618/1724 26008KT 9999 SCT045 
     PROB30 1701/1707 5000 BR MIFG
       
EGPO 161820Z 27011KT 9999 VCSH FEW020CB SCT028 14/10 Q1003
TAF EGPO 161658Z 1618/1703 25015KT 9999 SCT035 
     PROB40 
     TEMPO 1618/1703 7000 SHRA
       
EGPB 161820Z 23013KT 9999 FEW012 13/11 Q1001 NOSIG
TAF EGPB 161658Z 1618/1703 22012KT 9999 FEW010
       
EGNV 161820Z 23017KT 9999 FEW030 16/09 Q1010
TAF EGNV 161656Z 1618/1621 26017KT 9999 SCT035 
     TEMPO 1618/1620 25020G30KT 
     PROB30 
     TEMPO 1618/1620 7000 SHRA
       
EGPU 161750Z AUTO 25015KT 220V280 9999 FEW018/// 14/11 Q1007
EGXZ 161750Z AUTO 24014KT 9999 BKN050/// 16/10 Q1011
TAF EGXZ 161058Z 1612/1621 26012KT 9999 SCT030 
     TEMPO 1613/1616 26015G25KT 7000 SHRA 
     TEMPO 1616/1618 26015G25KT 6000 SHRA BKN024CB
       
EGOV 161750Z 23013KT 9999 FEW022TCU BKN080 17/12 Q1013 BLU
EGXW 161750Z 25009KT CAVOK 18/08 Q1012 BLU
TAF EGXW 161612Z 1618/1712 26010KT 9999 FEW045 
     PROB40 
     TEMPO 1708/1710 SCT020
       
EGNO 161750Z 26018KT 9999 FEW023 17/11 Q1011
TAF EGNO 161100Z 1612/1620 25012KT 9999 FEW020 
     TEMPO 1612/1620 25016G26KT 
     PROB30 
     TEMPO 1612/1617 7000 SHRA
       
EGUW 161750Z 20007KT 9999 FEW020 BKN150 15/13 Q1013 BLU
TAF EGUW 161332Z 1615/1624 26010KT CAVOK
       
EGPC 161820Z 27012KT 9999 FEW011 SCT040 15/08 Q1003
TAF EGPC 161658Z 1618/1703 25012KT 9999 SCT040 
     PROB30 
     TEMPO 1618/1703 7000 SHRA
       
EGXT 161750Z AUTO 26013KT 9999 BKN070/// 19/09 Q1012
EGOW 161550Z 25019KT 9999 SCT025 19/11 Q1011 BLU
EGDY 161750Z 32011KT 9999 FEW035 19/09 Q1015 BLU NOSIG
TAF EGDY 161334Z 1615/1624 30010KT 9999 SCT030